KGPT/GPT METAR and TAF weather

Enter ICAO airport designator
Station Type Date Time Source
KGPT METAR 2022/12/01 00:53 UTC NOAA

KGPT 010053Z 01008G18KT 10SM CLR 14/01 A3028 RMK AO2 SLP254 T01390011


Station Type Date Time Source
KGPT Decoded METAR 2022/12/01 00:53 UTC NOAA

GULFPORT-BILOXI REG AIRPORT , MS, United States (KGPT) 30-25N 089-05W 14M
Nov 30, 2022 - 07:53 PM EST / 2022.12.01 0053 UTC
Wind: from the N (010 degrees) at 9 MPH (8 KT) gusting to 21 MPH (18 KT):0
Visibility: 10 mile(s):0
Sky conditions: clear
Temperature: 57.0 F (13.9 C)
Dew Point: 34.0 F (1.1 C)
Relative Humidity: 41%
Pressure (altimeter): 30.28 in. Hg (1025 hPa)
ob: KGPT 010053Z 01008G18KT 10SM CLR 14/01 A3028 RMK AO2 SLP254 T01390011
cycle: 1

Station Type Date Time Source
KGPT TAF 2022/11/30 18:22 UTC NOAA

TAF KGPT 301720Z 3018/0118 36016G25KT P6SM BKN035
FM010100 03010KT P6SM FEW250

Example: see airport list